• Join FlightAware (Why Join?)
  • Login
  • US Flag 
09:25PM EDT


 

Airport Tracker/Info


-or-


 

Live Flight TrackerFlight Track Log ✈ N500HY ✈ 30-Apr-2013 ✈ I39 - KPGV

Flight Track Log - Related Links

Times and Time Zones

All times are in EDT time to prevent confusion due to time zone crossing. See the N500HY flight status page for this flight to view local times or setup timezone preferences in your user account.

Time Position Orientation Groundspeed Altitude Reporting Facility
EDT Latitude Longitude Course Direction KTS MPH feet Rate Location/Type
02:48PM 37.5539 -84.2286 110° East 233 268 5,600  Level Indianapolis Center
02:49PM 37.5250 -84.1272 110° East 258 297 8,500 2,040 Climbing Indianapolis Center
02:50PM 37.5014 -84.0325 107° East 274 315 9,900 720 Climbing Indianapolis Center
02:51PM 37.4756 -83.9317 108° East 294 338 10,000 480 Climbing Indianapolis Center
02:52PM 37.4506 -83.8247 106° East 311 358 10,900 1,440 Climbing Indianapolis Center
02:53PM 37.4258 -83.7206 107° East 312 359 13,000 2,040 Climbing Indianapolis Center
02:54PM 37.3983 -83.6153 108° East 315 362 15,100 1,440 Climbing Indianapolis Center
02:55PM 37.3714 -83.5064 107° East 323 372 16,000 1,200 Climbing Indianapolis Center
02:56PM 37.3350 -83.3653 108° East 361 415 17,600 1,560 Climbing Indianapolis Center
02:57PM 37.3047 -83.2447 107° East 360 414 19,300 1,740 Climbing Indianapolis Center
02:58PM 37.2753 -83.1300 108° East 347 399 21,200 1,860 Climbing Indianapolis Center
02:59PM 37.2469 -83.0167 107° East 341 392 23,200 1,860 Climbing Indianapolis Center
03:00PM 37.2183 -82.9025 107° East 340 391 25,100 1,680 Climbing Indianapolis Center
03:01PM 37.1883 -82.7889 108° East 340 391 26,700 1,380 Climbing Indianapolis Center
03:02PM 37.1578 -82.6728 108° East 346 398 28,000 1,320 Climbing Indianapolis Center
03:03PM 37.1214 -82.5336 108° East 355 409 29,500 1,200 Climbing Indianapolis Center
03:04PM 37.0889 -82.4133 109° East 363 418 30,500 1,020 Climbing Indianapolis Center
03:05PM 37.0725 -82.3478 107° East 371 427 31,100 1,020 Climbing Atlanta Center
03:06PM 37.0394 -82.2239 108° East 371 427 32,100 960 Climbing Atlanta Center
03:07PM 37.0064 -82.0997 108° East 371 427 33,100 840 Climbing Atlanta Center
03:07PM 36.9903 -82.0378 108° East 379 436 33,500 720 Climbing Indianapolis Center
03:08PM 36.9550 -81.9097 109° East 387 445 34,300 720 Climbing Indianapolis Center
03:09PM 36.9144 -81.7597 109° East 392 451 35,000 300 Climbing Indianapolis Center
03:11PM 36.8775 -81.6242 109° East 408 470 35,000  Level Indianapolis Center
03:11PM 36.8656 -81.5767 107° East 404 465 35,000  Level Atlanta Center
03:12PM 36.8256 -81.4508 112° Southeast 417 480 35,000  Level Atlanta Center
03:13PM 36.7847 -81.3044 109° East 432 497 35,000  Level Atlanta Center
03:14PM 36.7456 -81.1372 106° East 446 513 35,000 -300 Level Atlanta Center
03:15PM 36.7025 -80.9914 110° East 453 521 34,400 -840 Descending Atlanta Center
03:16PM 36.6611 -80.8453 109° East 453 521 33,400 -1,080 Descending Atlanta Center
03:17PM 36.6197 -80.6944 109° East 453 521 32,300 -1,140 Descending Atlanta Center
03:18PM 36.5739 -80.5489 111° Southeast 453 521 31,200 -1,200 Descending Atlanta Center
03:19PM 36.5347 -80.4189 111° Southeast 453 521 30,000 -840 Descending Atlanta Center
03:21PM 36.4611 -80.1581 109° East 438 504 29,000 -420 Descending Washington Center
03:22PM 36.4244 -80.0242 109° East 444 511 29,000  Level Washington Center
03:23PM 36.3797 -79.8772 111° Southeast 449 517 29,000 -540 Level Washington Center
03:24PM 36.3356 -79.7150 109° East 459 528 28,000 -1,380 Descending Washington Center
03:25PM 36.2903 -79.5656 111° Southeast 452 520 26,300 -1,680 Descending Washington Center
03:26PM 36.2492 -79.4244 110° East 457 526 24,700 -1,620 Descending Washington Center
03:27PM 36.2056 -79.2808 111° Southeast 447 514 23,100 -1,620 Descending Washington Center
03:28PM 36.1639 -79.1400 110° East 442 509 21,600 -1,560 Descending Washington Center
03:29PM 36.1222 -79.0017 110° East 437 503 20,100 -1,320 Descending Washington Center
03:30PM 36.0800 -78.8661 111° Southeast 432 497 19,000 -600 Descending Washington Center
03:31PM 36.0439 -78.7364 109° East 414 476 19,000  Level Washington Center
03:32PM 36.0014 -78.6036 112° Southeast 414 476 19,000  Level Washington Center
03:33PM 35.9608 -78.4711 111° Southeast 414 476 19,000 -180 Level Washington Center
03:34PM 35.9222 -78.3417 110° East 414 476 18,700 -960 Descending Washington Center
03:35PM 35.8811 -78.2144 112° Southeast 405 466 17,100 -1,800 Descending Washington Center
03:36PM 35.8481 -78.1033 110° East 399 459 15,100 -1,380 Descending Washington Center
03:37PM 35.8108 -77.9894 112° Southeast 386 444 14,400 -1,500 Descending Washington Center
03:38PM 35.7775 -77.8783 110° East 359 413 12,200 -2,340 Descending Washington Center
03:39PM 35.7458 -77.7800 112° Southeast 329 379 9,800 -2,220 Descending Washington Center
03:40PM 35.7183 -77.6925 111° Southeast 299 344 7,700 -2,100 Descending Washington Center
03:41PM 35.6906 -77.6072 112° Southeast 280 322 5,600 -2,220 Descending Washington Center
03:42PM 35.6647 -77.5222 110° East 269 310 3,400 -2,280 Descending Washington Center